Time;durP1;ratioP1;P1;durP2;ratioP2;P2;SDS_P1;SDS_P2;PMS_P1;PMS_P2;Temp;Humidity;BMP_temperature;BMP_pressure;BME280_temperature;BME280_humidity;BME280_pressure;Samples;Min_cycle;Max_cycle;Signal;HPM_P1;HPM_P2
2021/04/14 00:00:42;;;;;;;6.13;4.97;;;8.20;16.90;;;;;;5096144;28;20207;-81
2021/04/14 00:03:11;;;;;;;7.90;5.50;;;8.10;1.00;;;;;;5096139;28;20172;-83
2021/04/14 00:05:39;;;;;;;6.83;5.23;;;8.00;1.00;;;;;;5095902;28;20179;-82
2021/04/14 00:08:06;;;;;;;8.17;5.50;;;7.90;1.00;;;;;;5095595;28;20625;-81
2021/04/14 00:10:33;;;;;;;7.73;5.10;;;7.90;1.00;;;;;;5096031;28;20168;-81
2021/04/14 00:13:03;;;;;;;8.50;5.77;;;7.80;1.00;;;;;;5095790;28;20194;-82
2021/04/14 00:15:42;;;;;;;7.17;5.50;;;7.70;18.50;;;;;;5077784;28;20262;-80
2021/04/14 00:18:09;;;;;;;9.90;5.90;;;7.70;99.90;;;;;;5077752;28;20175;-82
2021/04/14 00:20:35;;;;;;;8.10;5.60;;;7.70;99.90;;;;;;5077723;28;20203;-80
2021/04/14 00:23:01;;;;;;;8.83;5.43;;;7.60;99.90;;;;;;5095389;28;20191;-83
2021/04/14 00:25:29;;;;;;;10.70;6.20;;;7.70;1.00;;;;;;5077498;28;20175;-80
2021/04/14 00:27:55;;;;;;;7.33;4.90;;;7.60;99.90;;;;;;5077257;28;20207;-83
2021/04/14 00:30:22;;;;;;;6.50;5.50;;;7.60;1.00;;;;;;5095478;28;20255;-81
2021/04/14 00:32:48;;;;;;;9.23;5.53;;;7.60;1.00;;;;;;5095279;28;20172;-80
2021/04/14 00:35:15;;;;;;;7.63;5.57;;;7.60;99.90;;;;;;5077379;28;20504;-83
2021/04/14 00:37:40;;;;;;;9.27;5.40;;;7.60;1.00;;;;;;5077077;28;20172;-82
2021/04/14 00:40:11;;;;;;;7.37;5.53;;;7.70;1.00;;;;;;5077428;28;20171;-81
2021/04/14 00:42:36;;;;;;;10.70;5.87;;;7.70;1.00;;;;;;5095149;28;20195;-82
2021/04/14 00:45:04;;;;;;;8.37;6.00;;;7.60;1.00;;;;;;5077340;28;20390;-82
2021/04/14 00:47:29;;;;;;;11.70;5.67;;;7.60;99.90;;;;;;5094961;28;20207;-82
2021/04/14 00:49:55;;;;;;;8.80;6.23;;;7.50;99.90;;;;;;5095234;28;20186;-80
2021/04/14 00:52:21;;;;;;;8.83;5.80;;;7.70;99.90;;;;;;5094869;28;20183;-81
2021/04/14 00:54:46;;;;;;;8.93;5.90;;;7.70;1.00;;;;;;5095219;28;20176;-82
2021/04/14 00:57:12;;;;;;;9.77;5.60;;;7.90;1.00;;;;;;5095399;28;20207;-83
2021/04/14 00:59:37;;;;;;;7.47;5.40;;;7.90;1.00;;;;;;5094876;28;20171;-81
2021/04/14 01:02:05;;;;;;;6.87;5.10;;;7.80;99.90;;;;;;5095092;28;20178;-80
2021/04/14 01:04:31;;;;;;;8.53;5.77;;;7.80;1.00;;;;;;5094889;28;20167;-81
2021/04/14 01:06:56;;;;;;;6.97;5.43;;;7.80;99.90;;;;;;5076751;28;20225;-83
2021/04/14 01:09:22;;;;;;;7.87;5.40;;;8.00;1.00;;;;;;5094993;28;20211;-82
2021/04/14 01:11:48;;;;;;;7.37;5.50;;;8.10;42.80;;;;;;5076683;28;20168;-82
2021/04/14 01:14:13;;;;;;;8.60;5.23;;;8.20;99.90;;;;;;5094469;28;20180;-83
2021/04/14 01:16:39;;;;;;;8.23;5.57;;;8.30;1.00;;;;;;5076565;28;20661;-80
2021/04/14 01:19:05;;;;;;;7.20;5.20;;;8.40;52.30;;;;;;5094757;28;20224;-82
2021/04/14 01:21:39;;;;;;;8.97;5.57;;;8.40;99.90;;;;;;5094625;28;20195;-83
2021/04/14 01:24:11;;;;;;;8.00;5.17;;;8.40;1.00;;;;;;5094518;28;20166;-80
2021/04/14 01:26:37;;;;;;;6.83;5.37;;;8.40;1.00;;;;;;5094491;28;20175;-83
2021/04/14 01:29:05;;;;;;;7.17;4.93;;;8.20;99.90;;;;;;5094193;28;20301;-82
2021/04/14 01:31:33;;;;;;;7.03;4.50;;;8.20;99.90;;;;;;5094466;28;20160;-82
2021/04/14 01:34:06;;;;;;;6.73;4.10;;;8.30;99.90;;;;;;5094391;28;20168;-83
2021/04/14 01:36:33;;;;;;;8.73;4.70;;;8.30;1.00;;;;;;5093512;28;20247;-83
2021/04/14 01:38:58;;;;;;;5.87;4.33;;;8.30;99.90;;;;;;5094331;28;20254;-82
2021/04/14 01:41:24;;;;;;;6.90;4.20;;;8.30;99.90;;;;;;5094310;28;20670;-80
2021/04/14 01:43:51;;;;;;;6.57;4.20;;;8.40;30.50;;;;;;5093962;28;20172;-81
2021/04/14 01:46:17;;;;;;;5.73;4.03;;;8.60;1.00;;;;;;5094307;28;20556;-80
2021/04/14 01:48:42;;;;;;;9.20;4.90;;;8.50;99.90;;;;;;5093908;28;20207;-83
2021/04/14 01:51:08;;;;;;;7.93;4.63;;;8.60;99.90;;;;;;5093746;28;20309;-81
2021/04/14 01:53:34;;;;;;;9.67;6.00;;;8.20;99.90;;;;;;5093912;28;20221;-81
2021/04/14 01:56:00;;;;;;;7.60;5.40;;;7.80;1.00;;;;;;5094068;28;20171;-81
2021/04/14 01:58:28;;;;;;;8.97;5.80;;;7.80;99.90;;;;;;5075691;28;20172;-81
2021/04/14 02:00:59;;;;;;;9.20;6.13;;;7.80;1.00;;;;;;5093918;28;20163;-80
2021/04/14 02:03:28;;;;;;;9.57;5.80;;;7.60;1.00;;;;;;5093602;28;20168;-79
2021/04/14 02:05:53;;;;;;;9.70;6.20;;;7.40;1.00;;;;;;5093954;28;20193;-80
2021/04/14 02:08:20;;;;;;;8.23;6.07;;;7.10;99.90;;;;;;5093853;28;20264;-83
2021/04/14 02:10:46;;;;;;;8.07;5.93;;;7.00;99.90;;;;;;5093865;28;20164;-83
2021/04/14 02:13:17;;;;;;;10.03;6.50;;;7.00;99.90;;;;;;5093771;28;20168;-82
2021/04/14 02:15:43;;;;;;;10.37;6.70;;;6.90;99.90;;;;;;5093989;28;20183;-82
2021/04/14 02:18:09;;;;;;;9.43;6.67;;;6.90;1.00;;;;;;5093724;28;20171;-80
2021/04/14 02:20:35;;;;;;;9.03;6.50;;;6.90;1.00;;;;;;5093579;28;20168;-80
2021/04/14 02:23:14;;;;;;;7.50;5.57;;;6.90;1.00;;;;;;5093649;28;20187;-83
2021/04/14 02:25:40;;;;;;;8.97;6.33;;;6.80;1.00;;;;;;5075450;28;20167;-81
2021/04/14 02:28:06;;;;;;;8.27;6.30;;;6.80;1.00;;;;;;5093625;28;20608;-82
2021/04/14 02:30:31;;;;;;;9.70;7.20;;;6.70;1.00;;;;;;5093592;28;20232;-82
2021/04/14 02:32:57;;;;;;;8.93;6.67;;;6.80;1.00;;;;;;5075089;28;20172;-82
2021/04/14 02:35:24;;;;;;;11.20;6.83;;;7.00;1.00;;;;;;5093331;28;20168;-82
2021/04/14 02:37:51;;;;;;;11.07;6.73;;;7.00;1.00;;;;;;5093410;28;20252;-81
2021/04/14 02:40:17;;;;;;;11.33;6.77;;;7.00;1.00;;;;;;5093330;28;20293;-81
2021/04/14 02:42:43;;;;;;;9.37;6.43;;;7.20;1.00;;;;;;5075204;28;20308;-83
2021/04/14 02:45:11;;;;;;;9.77;6.67;;;7.40;99.90;;;;;;5093359;28;20203;-83
2021/04/14 02:47:37;;;;;;;8.87;6.77;;;7.60;99.90;;;;;;5091956;28;20558;-83
2021/04/14 02:50:08;;;;;;;10.30;6.53;;;7.70;99.90;;;;;;5093061;28;20190;-81
2021/04/14 02:52:34;;;;;;;11.87;6.80;;;7.80;99.90;;;;;;5074997;28;20186;-83
2021/04/14 02:55:01;;;;;;;10.97;6.17;;;7.80;99.90;;;;;;5093152;28;20242;-81
2021/04/14 02:57:26;;;;;;;6.87;5.70;;;7.90;96.20;;;;;;5093228;28;20168;-82
2021/04/14 02:59:53;;;;;;;8.57;5.40;;;8.00;1.00;;;;;;5093054;28;20340;-82
2021/04/14 03:02:21;;;;;;;8.07;5.10;;;8.00;1.00;;;;;;5092786;28;20160;-81
2021/04/14 03:04:46;;;;;;;6.93;4.77;;;8.00;20.70;;;;;;5093207;28;20167;-83
2021/04/14 03:07:12;;;;;;;6.00;4.30;;;8.10;1.00;;;;;;5092874;28;20170;-83
2021/04/14 03:09:38;;;;;;;8.30;5.10;;;8.10;99.90;;;;;;5093105;28;20167;-80
2021/04/14 03:12:04;;;;;;;23.17;5.27;;;8.10;1.00;;;;;;5074642;28;20167;-83
2021/04/14 03:14:30;;;;;;;8.70;5.43;;;8.10;1.00;;;;;;5093064;28;20666;-81
2021/04/14 03:16:55;;;;;;;11.30;6.13;;;8.20;1.00;;;;;;5092546;28;20167;-83
2021/04/14 03:19:21;;;;;;;25.43;8.37;;;8.10;99.90;;;;;;5093064;28;20635;-82
2021/04/14 03:21:47;;;;;;;13.40;8.10;;;8.20;1.00;;;;;;5092823;28;20178;-83
2021/04/14 03:24:12;;;;;;;11.90;6.57;;;8.00;99.90;;;;;;5092930;28;20171;-82
2021/04/14 03:26:38;;;;;;;10.07;6.87;;;8.00;99.90;;;;;;5074797;28;20174;-82
2021/04/14 03:29:04;;;;;;;7.83;5.97;;;7.80;99.90;;;;;;5092758;28;20237;-79
2021/04/14 03:31:32;;;;;;;7.30;5.90;;;7.70;1.00;;;;;;5074619;28;20217;-82
2021/04/14 03:33:58;;;;;;;7.83;5.37;;;7.70;99.90;;;;;;5074772;28;20183;-82
2021/04/14 03:36:23;;;;;;;9.73;4.90;;;7.70;1.00;;;;;;5092760;28;20179;-81
2021/04/14 03:38:49;;;;;;;10.30;5.30;;;7.70;1.00;;;;;;5074832;28;20189;-81
2021/04/14 03:41:15;;;;;;;7.87;4.63;;;7.70;99.90;;;;;;5074645;28;20179;-81
2021/04/14 03:43:41;;;;;;;6.70;4.53;;;7.80;1.00;;;;;;5074388;28;20274;-81
2021/04/14 03:46:07;;;;;;;10.20;4.97;;;7.90;1.00;;;;;;5074185;28;20200;-81
2021/04/14 03:48:33;;;;;;;9.00;4.60;;;7.80;1.00;;;;;;5092434;28;20195;-82
2021/04/14 03:50:59;;;;;;;8.40;3.97;;;7.70;99.90;;;;;;5092794;28;20244;-82
2021/04/14 03:53:30;;;;;;;6.57;4.20;;;7.70;99.90;;;;;;5092462;28;20175;-80
2021/04/14 03:56:04;;;;;;;8.27;4.10;;;7.70;1.00;;;;;;5092612;28;20241;-82
2021/04/14 03:58:32;;;;;;;7.30;4.03;;;7.70;1.00;;;;;;5075125;28;20550;-80
2021/04/14 04:01:00;;;;;;;5.10;3.57;;;7.70;99.90;;;;;;5096052;28;20168;-79
2021/04/14 04:03:27;;;;;;;7.70;3.83;;;7.80;99.90;;;;;;5096244;28;20183;-82
2021/04/14 04:05:53;;;;;;;7.53;3.93;;;7.80;99.90;;;;;;5078322;28;20570;-82
2021/04/14 04:08:19;;;;;;;7.57;3.67;;;7.70;1.00;;;;;;5096099;28;20203;-82
2021/04/14 04:10:44;;;;;;;5.83;4.27;;;7.60;1.00;;;;;;5096127;28;20221;-80
2021/04/14 04:13:12;;;;;;;7.40;4.10;;;7.60;1.00;;;;;;5077835;28;20184;-82
2021/04/14 04:15:38;;;;;;;7.53;3.77;;;7.80;99.90;;;;;;5095839;28;20175;-81
2021/04/14 04:18:04;;;;;;;5.87;3.83;;;8.00;1.00;;;;;;5095951;28;20168;-81
2021/04/14 04:20:30;;;;;;;8.10;4.43;;;8.10;1.00;;;;;;5096271;28;20179;-81
2021/04/14 04:22:56;;;;;;;7.70;4.30;;;8.20;1.00;;;;;;5095686;28;20176;-81
2021/04/14 04:25:22;;;;;;;7.73;4.67;;;8.20;99.90;;;;;;5095908;28;20160;-81
2021/04/14 04:27:48;;;;;;;9.27;4.70;;;8.10;99.90;;;;;;5077267;28;20196;-81
2021/04/14 04:30:14;;;;;;;7.60;5.33;;;8.20;1.00;;;;;;5095429;28;20179;-80
2021/04/14 04:32:40;;;;;;;10.90;6.17;;;8.20;99.90;;;;;;5095619;28;20246;-80
2021/04/14 04:35:07;;;;;;;15.53;7.53;;;8.20;1.00;;;;;;5095538;28;20168;-81
2021/04/14 04:37:33;;;;;;;17.77;9.47;;;8.30;1.00;;;;;;5095305;28;20172;-80
2021/04/14 04:39:59;;;;;;;15.90;9.10;;;8.10;1.00;;;;;;5077222;28;20259;-81
2021/04/14 04:42:25;;;;;;;12.43;8.67;;;8.10;1.00;;;;;;5077184;28;20180;-81
2021/04/14 04:44:50;;;;;;;14.23;7.30;;;8.00;1.00;;;;;;5095137;28;20210;-82
2021/04/14 04:47:16;;;;;;;12.67;7.40;;;7.70;1.00;;;;;;5095106;28;20243;-81
2021/04/14 04:49:42;;;;;;;12.90;7.77;;;7.70;1.00;;;;;;5076870;28;20175;-79
2021/04/14 04:52:08;;;;;;;11.13;7.13;;;7.70;1.00;;;;;;5095147;28;20241;-81
2021/04/14 04:54:34;;;;;;;15.33;7.23;;;7.80;1.00;;;;;;5076938;28;20221;-82
2021/04/14 04:57:00;;;;;;;10.83;6.60;;;7.80;1.00;;;;;;5095192;28;20168;-82
2021/04/14 04:59:26;;;;;;;16.73;8.30;;;7.70;99.90;;;;;;5094660;28;20172;-82
2021/04/14 05:01:57;;;;;;;9.43;6.63;;;7.70;99.90;;;;;;5094813;28;20164;-80
2021/04/14 05:04:23;;;;;;;14.10;6.83;;;7.60;99.90;;;;;;5076796;28;20178;-81
2021/04/14 05:06:48;;;;;;;15.60;6.37;;;7.60;1.00;;;;;;5076725;28;20258;-80
2021/04/14 05:09:14;;;;;;;15.47;6.47;;;7.60;99.90;;;;;;5094660;28;20716;-82
2021/04/14 05:11:40;;;;;;;17.07;6.60;;;7.60;99.90;;;;;;5075707;28;20579;-82
2021/04/14 05:14:06;;;;;;;10.20;6.40;;;7.60;99.90;;;;;;5094477;28;20202;-80
2021/04/14 05:16:32;;;;;;;16.20;6.30;;;7.60;99.90;;;;;;5094276;28;20183;-80
2021/04/14 05:18:57;;;;;;;11.50;5.57;;;7.70;99.90;;;;;;5094490;28;20221;-80
2021/04/14 05:21:24;;;;;;;10.40;7.20;;;7.70;99.90;;;;;;5094764;28;20171;-80
2021/04/14 05:23:50;;;;;;;13.67;5.97;;;7.60;99.90;;;;;;5094822;28;20202;-82
2021/04/14 05:26:16;;;;;;;11.13;6.40;;;7.50;1.00;;;;;;5094199;28;20624;-80
2021/04/14 05:28:43;;;;;;;10.57;6.77;;;7.50;1.00;;;;;;5094484;28;20242;-82
2021/04/14 05:31:09;;;;;;;8.00;5.67;;;7.60;99.90;;;;;;5094531;28;20689;-81
2021/04/14 05:33:35;;;;;;;11.60;6.13;;;7.60;99.90;;;;;;5094247;28;20172;-81
2021/04/14 05:36:02;;;;;;;13.17;6.97;;;7.70;99.90;;;;;;5076167;28;20199;-81
2021/04/14 05:38:28;;;;;;;14.37;5.87;;;7.70;99.90;;;;;;5094226;28;20164;-81
2021/04/14 05:40:54;;;;;;;12.53;6.13;;;7.60;99.90;;;;;;5093770;28;20255;-82
2021/04/14 05:43:22;;;;;;;8.27;6.00;;;7.50;99.90;;;;;;5094083;28;20179;-81
2021/04/14 05:45:58;;;;;;;10.70;5.80;;;7.60;99.90;;;;;;5076014;28;20198;-81
2021/04/14 05:48:24;;;;;;;16.10;6.27;;;7.70;99.90;;;;;;5094030;28;20209;-82
2021/04/14 05:50:51;;;;;;;14.03;6.07;;;7.70;99.90;;;;;;5093899;28;20188;-81
2021/04/14 05:53:17;;;;;;;10.30;6.60;;;7.60;99.90;;;;;;5075719;28;20632;-79
2021/04/14 05:55:43;;;;;;;12.23;6.50;;;7.60;99.90;;;;;;5093613;28;20171;-78
2021/04/14 05:58:08;;;;;;;9.67;6.37;;;7.60;99.90;;;;;;5093888;28;20249;-81
2021/04/14 06:00:34;;;;;;;14.93;7.13;;;7.60;99.90;;;;;;5093728;28;20178;-81
2021/04/14 06:03:01;;;;;;;11.30;6.53;;;7.70;99.90;;;;;;5093753;28;20172;-81
2021/04/14 06:05:27;;;;;;;10.70;6.70;;;7.70;99.90;;;;;;5093862;28;20170;-81
2021/04/14 06:07:53;;;;;;;13.13;6.27;;;7.90;99.90;;;;;;5093776;28;20227;-82
2021/04/14 06:10:21;;;;;;;15.83;6.27;;;7.80;99.90;;;;;;5093505;28;20214;-83
2021/04/14 06:12:52;;;;;;;11.60;6.30;;;7.80;99.90;;;;;;5075445;28;20172;-83
2021/04/14 06:15:22;;;;;;;11.63;6.53;;;8.00;99.90;;;;;;5092848;28;20220;-81
2021/04/14 06:17:48;;;;;;;13.07;7.00;;;7.90;99.90;;;;;;5074710;28;20168;-83
2021/04/14 06:20:15;;;;;;;14.63;7.93;;;8.00;99.90;;;;;;5093697;28;20217;-81
2021/04/14 06:22:41;;;;;;;13.90;7.70;;;8.00;99.90;;;;;;5093524;28;20168;-83
2021/04/14 06:25:11;;;;;;;15.00;7.80;;;8.00;99.90;;;;;;5093591;28;20560;-82
2021/04/14 06:27:49;;;;;;;11.10;7.50;;;8.00;99.90;;;;;;5093572;28;20215;-82
2021/04/14 06:30:17;;;;;;;13.37;7.00;;;7.90;99.90;;;;;;5074872;28;20663;-83
2021/04/14 06:32:43;;;;;;;13.77;7.53;;;7.80;99.90;;;;;;5076146;28;20627;-81
2021/04/14 06:35:09;;;;;;;9.43;6.53;;;7.60;99.90;;;;;;5093714;28;20228;-82
2021/04/14 06:37:35;;;;;;;15.23;7.00;;;7.70;99.90;;;;;;5094868;28;20229;-79
2021/04/14 06:40:18;;;;;;;18.73;6.90;;;7.80;99.90;;;;;;5094128;28;20181;-79
2021/04/14 06:42:58;;;;;;;12.43;7.70;;;7.90;99.90;;;;;;5093877;28;20626;-82
2021/04/14 06:45:41;;;;;;;15.80;7.63;;;8.10;40.80;;;;;;5076314;28;20180;-81
2021/04/14 06:48:17;;;;;;;19.60;8.10;;;8.10;99.90;;;;;;5094271;28;20230;-80
2021/04/14 06:50:48;;;;;;;15.47;8.10;;;8.00;99.90;;;;;;5094557;28;20222;-80
2021/04/14 06:53:45;;;;;;;16.93;7.97;;;7.90;99.90;;;;;;5094685;28;20273;-79
2021/04/14 06:56:17;;;;;;;16.63;8.03;;;8.00;99.90;;;;;;5100203;28;20163;-83
2021/04/14 06:58:58;;;;;;;13.47;7.77;;;7.90;42.20;;;;;;5079756;28;20172;-83
2021/04/14 07:01:29;;;;;;;14.67;7.27;;;8.00;99.90;;;;;;5093144;28;20256;-82
2021/04/14 07:04:13;;;;;;;13.37;7.40;;;8.10;99.90;;;;;;5092966;28;20167;-83
2021/04/14 07:06:42;;;;;;;11.77;7.80;;;8.00;99.90;;;;;;5092541;28;20170;-81
2021/04/14 07:09:17;;;;;;;14.67;7.23;;;8.00;57.90;;;;;;5092139;28;20203;-83
2021/04/14 07:11:44;;;;;;;12.33;7.17;;;8.10;1.00;;;;;;5092410;28;20171;-79
2021/04/14 07:14:12;;;;;;;12.47;6.97;;;8.10;1.00;;;;;;5092621;28;20195;-83
2021/04/14 07:16:56;;;;;;;13.97;8.00;;;8.20;1.00;;;;;;5074796;28;20176;-81
2021/04/14 07:19:34;;;;;;;16.43;7.40;;;8.20;1.00;;;;;;5093382;28;20190;-81
2021/04/14 07:22:17;;;;;;;15.87;7.97;;;8.40;99.90;;;;;;5092883;28;20162;-82
2021/04/14 07:24:55;;;;;;;12.97;7.43;;;8.50;99.90;;;;;;5074726;28;20416;-82
2021/04/14 07:27:28;;;;;;;13.03;7.87;;;8.40;99.90;;;;;;5092354;28;20155;-81
2021/04/14 07:30:12;;;;;;;9.50;7.17;;;8.30;99.90;;;;;;5074361;28;20218;-80
2021/04/14 07:32:53;;;;;;;12.17;7.17;;;8.20;99.90;;;;;;5092573;28;20163;-82
2021/04/14 07:35:27;;;;;;;9.87;6.43;;;8.20;1.00;;;;;;5096742;28;20502;-82
2021/04/14 07:38:06;;;;;;;14.00;7.17;;;8.20;99.90;;;;;;5096403;28;20190;-80
2021/04/14 07:40:49;;;;;;;14.13;8.37;;;8.30;99.90;;;;;;5096816;28;20166;-82
2021/04/14 07:43:29;;;;;;;12.40;7.03;;;8.30;99.90;;;;;;5096439;28;20178;-80
2021/04/14 07:45:55;;;;;;;12.67;6.80;;;8.60;1.00;;;;;;5078312;28;20174;-82
2021/04/14 07:48:34;;;;;;;12.90;6.70;;;8.70;99.90;;;;;;5097571;28;20215;-78
2021/04/14 07:51:02;;;;;;;7.63;6.47;;;8.70;99.90;;;;;;5077579;28;20194;-80
2021/04/14 07:53:37;;;;;;;15.83;7.27;;;8.80;1.00;;;;;;5095280;28;20210;-81
2021/04/14 07:56:18;;;;;;;13.47;7.37;;;8.80;99.90;;;;;;5096098;28;20194;-79
2021/04/14 07:58:44;;;;;;;11.70;7.07;;;8.90;1.00;;;;;;5096233;28;20168;-81
2021/04/14 08:01:10;;;;;;;10.30;6.73;;;9.10;1.00;;;;;;5096192;28;20276;-82
2021/04/14 08:03:36;;;;;;;12.27;6.70;;;9.30;99.90;;;;;;5096165;28;20555;-82
2021/04/14 08:06:31;;;;;;;9.03;6.63;;;9.40;1.00;;;;;;5095884;28;20168;-80
2021/04/14 08:08:56;;;;;;;16.23;7.30;;;9.50;99.90;;;;;;5078694;28;20226;-83
2021/04/14 08:11:31;;;;;;;11.53;7.13;;;9.30;99.90;;;;;;5096040;28;20164;-80
2021/04/14 08:14:15;;;;;;;11.83;6.33;;;9.40;1.00;;;;;;5077606;28;20171;-79
2021/04/14 08:16:45;;;;;;;11.90;6.50;;;9.50;99.90;;;;;;5095910;28;20224;-80
2021/04/14 08:19:19;;;;;;;16.63;6.23;;;9.60;1.00;;;;;;5095931;28;20163;-80
2021/04/14 08:22:02;;;;;;;10.17;6.00;;;9.50;99.90;;;;;;5095178;28;20480;-79
2021/04/14 08:24:31;;;;;;;9.37;6.50;;;9.20;99.90;;;;;;5077888;28;20175;-80
2021/04/14 08:27:29;;;;;;;11.40;7.23;;;9.20;1.00;;;;;;5077513;28;20526;-84
2021/04/14 08:30:13;;;;;;;11.70;5.57;;;9.40;99.90;;;;;;5070359;28;20210;-83
2021/04/14 08:32:55;;;;;;;11.27;6.93;;;9.30;99.90;;;;;;5077655;28;20168;-80
2021/04/14 08:35:35;;;;;;;11.60;6.23;;;9.20;99.90;;;;;;5095315;28;20642;-80
2021/04/14 08:38:15;;;;;;;12.83;5.70;;;9.20;1.00;;;;;;5077060;28;20198;-80
2021/04/14 08:40:49;;;;;;;8.30;5.33;;;9.20;1.00;;;;;;5095656;28;20661;-85
2021/04/14 08:43:23;;;;;;;12.03;6.20;;;9.30;1.00;;;;;;5095029;28;20171;-83
2021/04/14 08:45:49;;;;;;;9.17;5.63;;;9.50;6.80;;;;;;5077088;28;20598;-82
2021/04/14 08:48:27;;;;;;;12.57;6.10;;;9.70;99.90;;;;;;5076846;28;20245;-79
2021/04/14 08:50:58;;;;;;;7.73;5.40;;;9.80;57.60;;;;;;5076628;28;20730;-81
2021/04/14 08:53:31;;;;;;;12.57;5.57;;;9.80;1.00;;;;;;5076634;28;20270;-78
2021/04/14 08:55:57;;;;;;;10.53;5.90;;;10.10;1.00;;;;;;5077346;28;20164;-82
2021/04/14 08:58:23;;;;;;;9.10;4.80;;;10.10;99.90;;;;;;5077852;28;20658;-81
2021/04/14 09:00:49;;;;;;;8.57;5.90;;;10.00;99.90;;;;;;5076448;28;20535;-80
2021/04/14 09:03:20;;;;;;;9.80;6.07;;;10.10;99.90;;;;;;5094572;28;20168;-81
2021/04/14 09:05:47;;;;;;;7.47;5.30;;;10.30;99.90;;;;;;5094641;28;20179;-82
2021/04/14 09:08:17;;;;;;;9.47;4.73;;;10.10;99.90;;;;;;5076439;28;20356;-81
2021/04/14 09:10:57;;;;;;;10.27;5.30;;;10.10;1.00;;;;;;5076517;28;20225;-81
2021/04/14 09:13:37;;;;;;;7.80;5.03;;;10.50;99.90;;;;;;5094839;28;20518;-80
2021/04/14 09:16:06;;;;;;;6.60;5.13;;;10.50;1.00;;;;;;5076298;28;20596;-81
2021/04/14 09:18:38;;;;;;;9.93;5.80;;;10.60;1.00;;;;;;5094035;28;20619;-81
2021/04/14 09:21:19;;;;;;;8.23;5.60;;;10.70;99.90;;;;;;5094138;28;20270;-81
2021/04/14 09:24:06;;;;;;;9.43;5.50;;;10.40;1.00;;;;;;5076495;28;20255;-80
2021/04/14 09:26:37;;;;;;;8.30;5.30;;;10.50;99.90;;;;;;5076245;28;20183;-80
2021/04/14 09:29:19;;;;;;;10.30;5.10;;;10.30;99.90;;;;;;5094020;28;20308;-82
2021/04/14 09:31:51;;;;;;;12.00;5.27;;;10.10;99.90;;;;;;5076047;28;20171;-83
2021/04/14 09:34:22;;;;;;;11.90;5.27;;;10.10;64.80;;;;;;5093460;28;20258;-82
2021/04/14 09:37:18;;;;;;;7.63;4.93;;;10.00;99.90;;;;;;5093998;28;20237;-82
2021/04/14 09:39:43;;;;;;;6.67;4.93;;;10.00;99.90;;;;;;5074409;28;20181;-80
2021/04/14 09:42:16;;;;;;;7.90;5.50;;;10.10;1.00;;;;;;5075342;28;20164;-81
2021/04/14 09:44:46;;;;;;;10.57;5.63;;;10.10;1.00;;;;;;5075804;28;20187;-82
2021/04/14 09:47:15;;;;;;;7.77;5.47;;;10.00;99.90;;;;;;5093823;28;20233;-80
2021/04/14 09:49:43;;;;;;;10.63;7.33;;;10.10;99.90;;;;;;5075011;28;20690;-80
2021/04/14 09:52:39;;;;;;;7.53;5.77;;;10.20;1.00;;;;;;5075537;28;20555;-80
2021/04/14 09:55:13;;;;;;;9.60;6.10;;;10.20;1.00;;;;;;5075377;28;20199;-81
2021/04/14 09:57:42;;;;;;;9.20;6.13;;;10.40;1.00;;;;;;5093062;28;20640;-81
2021/04/14 10:00:19;;;;;;;8.33;5.43;;;10.70;99.90;;;;;;5075454;28;20213;-82
2021/04/14 10:02:47;;;;;;;9.00;6.10;;;10.70;99.90;;;;;;5093301;28;20248;-81
2021/04/14 10:05:14;;;;;;;7.57;5.73;;;10.90;99.90;;;;;;5074937;28;20273;-84
2021/04/14 10:07:43;;;;;;;8.27;5.60;;;10.80;99.90;;;;;;5075399;28;20168;-82
2021/04/14 10:10:16;;;;;;;7.80;6.40;;;10.60;99.90;;;;;;5093540;28;20172;-82
2021/04/14 10:12:42;;;;;;;7.90;5.80;;;10.60;97.70;;;;;;5093585;28;20186;-84
2021/04/14 10:15:09;;;;;;;8.27;5.50;;;10.70;99.90;;;;;;5093468;28;20588;-85
2021/04/14 10:17:35;;;;;;;8.13;5.97;;;10.80;99.90;;;;;;5074944;28;20221;-83
2021/04/14 10:20:11;;;;;;;8.93;6.00;;;11.00;99.90;;;;;;5093218;28;20168;-84
2021/04/14 10:22:48;;;;;;;8.43;6.00;;;11.40;99.90;;;;;;5093649;28;20179;-84
2021/04/14 10:25:22;;;;;;;6.10;5.23;;;11.80;99.90;;;;;;5075008;28;20178;-81
2021/04/14 10:27:50;;;;;;;7.37;5.33;;;11.80;1.00;;;;;;5093604;28;20187;-83
2021/04/14 10:30:22;;;;;;;8.93;5.77;;;12.00;1.00;;;;;;5093181;28;20194;-83
2021/04/14 10:32:50;;;;;;;9.17;5.30;;;11.50;1.00;;;;;;5074769;28;20290;-83
2021/04/14 10:35:23;;;;;;;8.57;5.70;;;11.70;1.00;;;;;;5092977;28;20729;-82
2021/04/14 10:37:52;;;;;;;8.23;5.43;;;11.90;1.00;;;;;;5093168;28;20712;-83
2021/04/14 10:40:39;;;;;;;8.83;5.27;;;12.20;1.00;;;;;;5092739;28;20164;-84
2021/04/14 10:43:20;;;;;;;8.13;6.17;;;12.20;1.00;;;;;;5074672;28;20715;-83
2021/04/14 10:46:05;;;;;;;9.97;5.80;;;12.10;1.00;;;;;;5074209;28;20176;-84
2021/04/14 10:48:32;;;;;;;7.20;5.87;;;12.00;1.00;;;;;;5074764;28;20741;-83
2021/04/14 10:51:17;;;;;;;6.77;6.00;;;11.50;1.00;;;;;;5093095;28;20183;-84
2021/04/14 10:53:44;;;;;;;8.67;6.00;;;11.30;1.00;;;;;;5092806;28;20172;-85
2021/04/14 10:56:26;;;;;;;7.00;5.57;;;11.20;1.00;;;;;;5092818;28;20167;-83
2021/04/14 10:58:53;;;;;;;7.67;5.90;;;11.00;1.00;;;;;;5074101;28;20171;-84
2021/04/14 11:01:50;;;;;;;10.37;6.33;;;10.70;1.00;;;;;;5074113;28;20572;-80
2021/04/14 11:04:16;;;;;;;7.57;6.10;;;10.60;1.00;;;;;;5073979;28;20187;-82
2021/04/14 11:06:49;;;;;;;8.87;6.27;;;10.50;5.00;;;;;;5092194;28;20167;-84
2021/04/14 11:09:17;;;;;;;8.50;6.37;;;10.40;15.50;;;;;;5073067;28;20608;-85
2021/04/14 11:11:44;;;;;;;8.57;6.03;;;10.50;16.80;;;;;;5092322;28;20171;-81
2021/04/14 11:14:13;;;;;;;8.30;6.37;;;10.80;1.00;;;;;;5092137;28;20228;-82
2021/04/14 11:16:44;;;;;;;7.60;6.13;;;11.10;1.00;;;;;;5073976;28;20263;-81
2021/04/14 11:19:15;;;;;;;8.83;6.33;;;11.40;1.00;;;;;;5074621;28;20175;-81
2021/04/14 11:21:41;;;;;;;10.17;5.90;;;11.60;1.00;;;;;;5092473;28;20254;-83
2021/04/14 11:24:11;;;;;;;9.10;6.73;;;11.70;1.00;;;;;;5074680;28;20255;-82
2021/04/14 11:26:47;;;;;;;8.40;6.37;;;11.60;1.00;;;;;;5073836;28;20530;-81
2021/04/14 11:29:23;;;;;;;7.97;6.07;;;11.60;1.00;;;;;;5073723;28;20639;-83
2021/04/14 11:31:51;;;;;;;10.13;6.43;;;11.70;1.00;;;;;;5092288;28;20284;-85
2021/04/14 11:34:20;;;;;;;9.03;6.77;;;11.70;1.00;;;;;;5092109;28;20168;-80
2021/04/14 11:37:13;;;;;;;9.20;6.27;;;11.50;1.00;;;;;;5074146;28;20632;-82
2021/04/14 11:39:57;;;;;;;8.40;6.07;;;11.40;1.00;;;;;;5092438;28;20171;-82
2021/04/14 11:42:26;;;;;;;7.07;5.80;;;11.60;1.00;;;;;;5091883;28;20179;-82
2021/04/14 11:45:00;;;;;;;7.47;5.60;;;11.80;1.00;;;;;;5074341;28;20543;-83
2021/04/14 11:47:34;;;;;;;9.13;6.57;;;12.20;1.00;;;;;;5073896;28;20279;-84
2021/04/14 11:50:14;;;;;;;8.93;6.67;;;12.10;1.00;;;;;;5075010;28;20214;-86
2021/04/14 11:52:48;;;;;;;9.73;7.07;;;12.00;1.00;;;;;;5073809;28;20175;-82
2021/04/14 11:55:19;;;;;;;16.07;7.00;;;12.10;1.00;;;;;;5092116;28;20284;-81
2021/04/14 11:57:47;;;;;;;8.53;5.87;;;11.60;32.20;;;;;;5073429;28;20262;-82
2021/04/14 12:00:21;;;;;;;11.23;7.17;;;11.50;4.00;;;;;;5092119;28;20627;-82
2021/04/14 12:02:50;;;;;;;10.97;6.83;;;11.30;1.00;;;;;;5073767;28;20175;-82
2021/04/14 12:05:16;;;;;;;6.60;5.83;;;11.40;99.90;;;;;;5073937;28;20176;-85
2021/04/14 12:07:42;;;;;;;8.10;5.87;;;11.60;60.10;;;;;;5073557;28;20183;-84
2021/04/14 12:10:08;;;;;;;9.03;6.10;;;11.80;28.10;;;;;;5073760;28;20184;-80
2021/04/14 12:12:35;;;;;;;8.10;6.10;;;11.30;89.10;;;;;;5091243;28;20194;-86
2021/04/14 12:15:01;;;;;;;7.33;6.30;;;11.40;99.90;;;;;;5091921;28;20172;-83
2021/04/14 12:17:26;;;;;;;8.80;6.60;;;11.70;99.90;;;;;;5091675;28;20175;-81
2021/04/14 12:19:52;;;;;;;10.87;6.50;;;11.80;99.90;;;;;;5092985;28;20179;-82
2021/04/14 12:22:18;;;;;;;11.00;7.20;;;11.50;99.90;;;;;;5095317;28;20203;-83
2021/04/14 12:24:45;;;;;;;10.87;6.60;;;11.40;99.90;;;;;;5077094;28;20183;-80
2021/04/14 12:27:12;;;;;;;10.00;6.30;;;11.80;99.90;;;;;;5076233;28;20581;-82
2021/04/14 12:29:37;;;;;;;10.37;6.93;;;12.00;99.90;;;;;;5076041;28;20347;-82
2021/04/14 12:32:04;;;;;;;8.93;6.83;;;12.10;75.20;;;;;;5096770;28;20258;-81
2021/04/14 12:34:29;;;;;;;8.00;6.87;;;12.40;1.00;;;;;;5094918;28;20533;-82
2021/04/14 12:36:55;;;;;;;9.07;6.70;;;12.30;1.00;;;;;;5095395;28;20170;-83
2021/04/14 12:39:21;;;;;;;9.07;6.93;;;12.50;1.00;;;;;;5076357;28;20179;-82
2021/04/14 12:41:46;;;;;;;9.63;7.00;;;12.80;1.00;;;;;;5094786;28;20616;-81
2021/04/14 12:44:12;;;;;;;11.33;6.67;;;12.90;1.00;;;;;;5094900;28;20652;-81
2021/04/14 12:46:44;;;;;;;9.70;6.73;;;12.90;1.00;;;;;;5076485;28;20184;-82
2021/04/14 12:49:12;;;;;;;10.30;7.37;;;12.80;1.00;;;;;;5076634;28;20250;-80
2021/04/14 12:51:49;;;;;;;10.17;7.17;;;12.30;1.00;;;;;;5094637;28;20183;-83
2021/04/14 12:54:34;;;;;;;11.03;6.83;;;12.00;1.00;;;;;;5094519;28;20164;-80
2021/04/14 12:57:19;;;;;;;9.17;6.67;;;12.00;1.00;;;;;;5076217;28;20193;-81
2021/04/14 13:00:05;;;;;;;9.40;6.70;;;11.90;1.00;;;;;;5094580;28;20585;-85
2021/04/14 13:02:38;;;;;;;8.33;6.90;;;12.00;1.00;;;;;;5076397;28;20591;-84
2021/04/14 13:05:09;;;;;;;9.30;7.80;;;12.20;1.00;;;;;;5076342;28;20164;-84
2021/04/14 13:07:41;;;;;;;9.87;7.67;;;12.30;1.00;;;;;;5094578;28;20172;-84
2021/04/14 13:10:09;;;;;;;8.77;6.90;;;12.20;1.00;;;;;;5094468;28;20251;-84